createdAt,value
2022-11-14T00:00:10.888Z,1.88
2022-11-14T00:00:42.089Z,1.88
2022-11-14T00:01:14.209Z,1.88
2022-11-14T00:01:37.176Z,1.88
2022-11-14T00:01:59.599Z,1.88
2022-11-14T00:02:34.263Z,1.88
2022-11-14T00:03:06.112Z,1.88
2022-11-14T00:03:38.069Z,1.88
2022-11-14T00:04:10.201Z,1.88
2022-11-14T00:04:42.147Z,1.88
2022-11-14T00:05:14.101Z,1.77
2022-11-14T00:05:36.820Z,1.77
2022-11-14T00:05:59.408Z,1.77
2022-11-14T00:06:34.243Z,1.72
2022-11-14T00:07:00.797Z,1.72
2022-11-14T00:07:38.469Z,1.72
2022-11-14T00:08:12.318Z,1.88
2022-11-14T00:08:42.190Z,1.88
2022-11-14T00:09:11.270Z,1.88
2022-11-14T00:09:43.238Z,1.88
2022-11-14T00:10:18.554Z,2.00
2022-11-14T00:10:41.051Z,2.00
2022-11-14T00:11:03.364Z,2.00
2022-11-14T00:11:38.588Z,2.00
2022-11-14T00:12:10.343Z,2.00
2022-11-14T00:12:42.175Z,2.00
2022-11-14T00:13:14.174Z,2.00
2022-11-14T00:13:36.867Z,1.88
2022-11-14T00:13:59.739Z,1.88
2022-11-14T00:14:34.348Z,1.88
2022-11-14T00:15:07.978Z,1.88
2022-11-14T00:15:41.858Z,1.88
2022-11-14T00:16:10.908Z,1.88
2022-11-14T00:16:42.247Z,1.88
2022-11-14T00:17:14.701Z,1.88
2022-11-14T00:17:37.248Z,1.88
2022-11-14T00:17:59.658Z,2.00
2022-11-14T00:18:34.463Z,2.00
2022-11-14T00:19:06.476Z,2.00
2022-11-14T00:19:38.310Z,2.00
2022-11-14T00:20:10.210Z,2.00
2022-11-14T00:20:42.793Z,2.00
2022-11-14T00:21:14.203Z,2.00
2022-11-14T00:21:38.351Z,2.00
2022-11-14T00:21:59.385Z,2.00
2022-11-14T00:22:34.241Z,2.00
2022-11-14T00:23:06.453Z,2.00
2022-11-14T00:23:38.143Z,1.88
2022-11-14T00:24:10.374Z,1.88
2022-11-14T00:24:42.480Z,1.88
2022-11-14T00:25:14.790Z,1.88
2022-11-14T00:25:37.490Z,1.88
2022-11-14T00:25:59.948Z,1.88
2022-11-14T00:26:34.626Z,1.88
2022-11-14T00:27:07.661Z,1.88
2022-11-14T00:27:39.680Z,1.88
2022-11-14T00:28:10.143Z,1.88
2022-11-14T00:28:42.470Z,1.88
2022-11-14T00:29:14.493Z,1.88
2022-11-14T00:29:37.282Z,1.88
2022-11-14T00:30:00.512Z,1.88
2022-11-14T00:30:34.361Z,1.88
2022-11-14T00:31:07.487Z,1.88
2022-11-14T00:31:38.151Z,1.88
2022-11-14T00:32:10.466Z,2.00
2022-11-14T00:32:42.288Z,2.00
2022-11-14T00:33:20.000Z,2.00
2022-11-14T00:33:37.447Z,2.00
2022-11-14T00:34:01.256Z,2.11
2022-11-14T00:34:34.998Z,2.11
2022-11-14T00:35:06.449Z,2.11
2022-11-14T00:35:38.608Z,2.11
2022-11-14T00:36:10.526Z,1.88
2022-11-14T00:36:42.652Z,2.11
2022-11-14T00:37:14.752Z,1.88
2022-11-14T00:37:37.600Z,1.88
2022-11-14T00:38:00.745Z,2.00
2022-11-14T00:38:34.187Z,2.00
2022-11-14T00:39:06.344Z,2.00
2022-11-14T00:39:39.360Z,2.00
2022-11-14T00:40:10.357Z,2.00
2022-11-14T00:40:42.034Z,2.11
2022-11-14T00:41:14.441Z,2.11
2022-11-14T00:41:37.094Z,2.11
2022-11-14T00:41:59.612Z,2.11
2022-11-14T00:42:35.218Z,2.11
2022-11-14T00:43:07.573Z,2.22
2022-11-14T00:43:52.069Z,2.22
2022-11-14T00:44:09.647Z,2.22
2022-11-14T00:44:42.725Z,2.22
2022-11-14T00:45:14.224Z,2.27
2022-11-14T00:45:36.807Z,2.11
2022-11-14T00:45:59.438Z,2.11
2022-11-14T00:46:37.789Z,2.11
2022-11-14T00:47:06.641Z,2.11
2022-11-14T00:47:38.053Z,2.22
2022-11-14T00:48:13.830Z,2.22
2022-11-14T00:48:37.678Z,2.22
2022-11-14T00:49:11.294Z,2.22
2022-11-14T00:49:42.684Z,2.27
2022-11-14T00:50:18.237Z,2.27
2022-11-14T00:50:41.555Z,2.38
2022-11-14T00:51:04.185Z,2.27
2022-11-14T00:51:39.600Z,2.27
2022-11-14T00:52:10.283Z,2.27
2022-11-14T00:52:42.417Z,2.38
2022-11-14T00:53:17.733Z,2.38
2022-11-14T00:53:42.842Z,2.38
2022-11-14T00:54:18.967Z,2.50
2022-11-14T00:54:41.541Z,2.50
2022-11-14T00:55:04.102Z,2.50
2022-11-14T00:55:38.380Z,2.61
2022-11-14T00:56:10.934Z,2.50
2022-11-14T00:56:42.402Z,2.61
2022-11-14T00:57:14.104Z,2.61
2022-11-14T00:57:36.852Z,2.61
2022-11-14T00:57:59.671Z,2.61
2022-11-14T00:58:34.190Z,2.50
2022-11-14T00:59:06.658Z,2.50
2022-11-14T00:59:38.371Z,2.50
2022-11-14T01:00:10.443Z,2.50
2022-11-14T01:00:43.020Z,2.50
2022-11-14T01:01:14.458Z,2.50
2022-11-14T01:01:37.043Z,2.50
2022-11-14T01:01:59.460Z,2.50
2022-11-14T01:02:35.793Z,2.61
2022-11-14T01:03:06.186Z,2.61
2022-11-14T01:03:38.227Z,2.61
2022-11-14T01:04:10.392Z,2.61
2022-11-14T01:04:43.423Z,2.61
2022-11-14T01:05:14.209Z,2.61
2022-11-14T01:05:36.938Z,2.61
2022-11-14T01:05:59.447Z,2.61
2022-11-14T01:06:34.471Z,2.61
2022-11-14T01:07:06.960Z,2.61
2022-11-14T01:07:38.609Z,2.50
2022-11-14T01:08:10.419Z,2.50
2022-11-14T01:08:41.991Z,2.50
2022-11-14T01:09:14.402Z,2.50
2022-11-14T01:09:37.023Z,2.50
2022-11-14T01:09:59.760Z,2.50
2022-11-14T01:10:35.992Z,2.50
2022-11-14T01:11:06.039Z,2.50
2022-11-14T01:11:38.513Z,2.50
2022-11-14T01:12:11.733Z,2.50
2022-11-14T01:12:42.382Z,2.50
2022-11-14T01:13:14.071Z,2.50
2022-11-14T01:13:36.810Z,2.50
2022-11-14T01:13:59.323Z,2.50
2022-11-14T01:14:34.695Z,2.50
2022-11-14T01:15:07.117Z,2.38
2022-11-14T01:15:38.506Z,2.38
2022-11-14T01:16:10.785Z,2.38
2022-11-14T01:16:42.203Z,2.38
2022-11-14T01:17:14.573Z,2.38
2022-11-14T01:17:37.039Z,2.27
2022-11-14T01:17:59.539Z,2.27
2022-11-14T01:18:34.548Z,2.38
2022-11-14T01:19:06.067Z,2.38
2022-11-14T01:19:38.142Z,2.38
2022-11-14T01:20:10.132Z,2.38
2022-11-14T01:20:42.321Z,2.38
2022-11-14T01:21:14.157Z,2.38
2022-11-14T01:21:36.983Z,2.27
2022-11-14T01:22:03.103Z,2.27
2022-11-14T01:22:34.214Z,2.27
2022-11-14T01:23:06.359Z,2.27
2022-11-14T01:23:38.035Z,2.27
2022-11-14T01:24:10.212Z,2.22
2022-11-14T01:24:42.296Z,2.22
2022-11-14T01:25:14.485Z,2.22
2022-11-14T01:25:37.148Z,2.22
2022-11-14T01:25:59.843Z,2.22
2022-11-14T01:26:36.145Z,2.22
2022-11-14T01:27:06.107Z,2.22
2022-11-14T01:27:38.347Z,2.11
2022-11-14T01:28:10.461Z,2.11
2022-11-14T01:28:42.607Z,2.11
2022-11-14T01:29:14.251Z,2.27
2022-11-14T01:29:36.912Z,2.11
2022-11-14T01:30:02.830Z,2.27
2022-11-14T01:30:34.573Z,2.27
2022-11-14T01:31:06.650Z,2.27
2022-11-14T01:31:38.117Z,2.22
2022-11-14T01:32:11.295Z,2.22
2022-11-14T01:32:42.216Z,2.22
2022-11-14T01:33:11.628Z,2.22
2022-11-14T01:33:43.589Z,2.22
2022-11-14T01:34:18.905Z,2.22
2022-11-14T01:34:41.392Z,2.22
2022-11-14T01:35:03.895Z,2.22
2022-11-14T01:35:38.326Z,2.22
2022-11-14T01:36:10.229Z,2.11
2022-11-14T01:36:42.914Z,2.11
2022-11-14T01:37:14.763Z,2.11
2022-11-14T01:37:37.651Z,2.11
2022-11-14T01:38:01.857Z,2.11
2022-11-14T01:38:34.760Z,2.11
2022-11-14T01:39:08.036Z,2.11
2022-11-14T01:39:38.017Z,2.11
2022-11-14T01:40:17.046Z,2.11
2022-11-14T01:40:37.247Z,2.11
2022-11-14T01:41:11.166Z,2.11
2022-11-14T01:41:42.761Z,2.11
2022-11-14T01:42:20.100Z,2.11
2022-11-14T01:42:41.509Z,2.11
2022-11-14T01:43:04.024Z,2.11
2022-11-14T01:43:38.131Z,2.00
2022-11-14T01:44:10.570Z,2.00
2022-11-14T01:44:42.170Z,2.22
2022-11-14T01:45:17.559Z,2.22
2022-11-14T01:45:37.317Z,2.22
2022-11-14T01:45:59.103Z,2.22
2022-11-14T01:46:34.230Z,2.22
2022-11-14T01:47:09.533Z,2.22
2022-11-14T01:47:38.076Z,2.22
2022-11-14T01:48:10.678Z,2.22
2022-11-14T01:48:42.134Z,2.22
2022-11-14T01:49:14.052Z,2.22
2022-11-14T01:49:36.838Z,2.22
2022-11-14T01:49:59.654Z,2.22
2022-11-14T01:50:34.273Z,2.22
2022-11-14T01:51:06.291Z,2.22
2022-11-14T01:51:38.016Z,2.22
2022-11-14T01:52:10.364Z,2.11
2022-11-14T01:52:41.990Z,2.11
2022-11-14T01:53:14.362Z,2.11
2022-11-14T01:53:37.043Z,2.11
2022-11-14T01:53:59.397Z,2.11
2022-11-14T01:54:34.046Z,2.11
2022-11-14T01:55:06.202Z,2.11
2022-11-14T01:55:38.001Z,2.11
2022-11-14T01:56:10.309Z,2.11
2022-11-14T01:56:42.117Z,2.11
2022-11-14T01:57:14.120Z,2.11
2022-11-14T01:57:37.474Z,2.11
2022-11-14T01:57:59.838Z,2.11
2022-11-14T01:58:34.089Z,2.11
2022-11-14T01:59:06.043Z,2.11
2022-11-14T01:59:38.605Z,2.11
2022-11-14T02:00:10.442Z,2.11
2022-11-14T02:00:42.076Z,2.11
2022-11-14T02:01:14.081Z,2.11
2022-11-14T02:01:36.983Z,2.11
2022-11-14T02:01:59.235Z,2.11
2022-11-14T02:02:34.116Z,2.11
2022-11-14T02:03:06.169Z,2.11
2022-11-14T02:03:38.065Z,2.11
2022-11-14T02:04:15.024Z,2.11
2022-11-14T02:04:42.148Z,2.11
2022-11-14T02:05:14.135Z,2.11
2022-11-14T02:05:37.039Z,2.11
2022-11-14T02:05:59.448Z,2.11
2022-11-14T02:06:34.127Z,2.11
2022-11-14T02:07:06.230Z,2.11
2022-11-14T02:07:38.126Z,2.27
2022-11-14T02:08:10.291Z,2.11
2022-11-14T02:08:42.358Z,2.11
2022-11-14T02:09:14.161Z,2.11
2022-11-14T02:09:37.016Z,2.11
2022-11-14T02:10:01.720Z,2.27
2022-11-14T02:10:34.079Z,2.27
2022-11-14T02:11:06.050Z,2.27
2022-11-14T02:11:38.153Z,2.27
2022-11-14T02:12:10.261Z,2.27
2022-11-14T02:12:42.088Z,2.27
2022-11-14T02:13:14.109Z,2.27
2022-11-14T02:13:37.022Z,2.27
2022-11-14T02:13:59.355Z,2.27
2022-11-14T02:14:34.140Z,2.27
2022-11-14T02:15:06.219Z,2.27
2022-11-14T02:15:38.356Z,2.27
2022-11-14T02:16:09.974Z,2.27
2022-11-14T02:16:48.299Z,2.27
2022-11-14T02:17:29.110Z,2.27
2022-11-14T02:17:36.740Z,2.27
2022-11-14T02:17:58.993Z,2.27
2022-11-14T02:18:34.129Z,2.27
2022-11-14T02:19:06.465Z,2.27
2022-11-14T02:19:38.105Z,2.27
2022-11-14T02:20:10.148Z,2.27
2022-11-14T02:20:42.055Z,2.27
2022-11-14T02:21:14.096Z,2.27
2022-11-14T02:21:37.189Z,2.27
2022-11-14T02:21:59.376Z,2.27
2022-11-14T02:22:34.248Z,2.27
2022-11-14T02:23:06.122Z,2.27
2022-11-14T02:23:38.055Z,2.38
2022-11-14T02:24:10.138Z,2.38
2022-11-14T02:24:42.571Z,2.38
2022-11-14T02:25:14.407Z,2.22
2022-11-14T02:25:37.180Z,2.22
2022-11-14T02:25:59.376Z,2.22
2022-11-14T02:26:36.856Z,2.22
2022-11-14T02:27:06.242Z,2.22
2022-11-14T02:27:38.127Z,2.22
2022-11-14T02:28:10.123Z,2.22
2022-11-14T02:28:42.365Z,2.22
2022-11-14T02:29:14.397Z,2.22
2022-11-14T02:29:38.098Z,2.22
2022-11-14T02:30:00.316Z,2.22
2022-11-14T02:30:34.541Z,2.22
2022-11-14T02:31:06.216Z,2.22
2022-11-14T02:31:38.121Z,2.22
2022-11-14T02:32:11.015Z,2.22
2022-11-14T02:33:09.620Z,2.22
2022-11-14T02:33:13.944Z,2.22
2022-11-14T02:33:37.143Z,2.11
2022-11-14T02:33:59.056Z,2.11
2022-11-14T02:34:34.356Z,2.11
2022-11-14T02:35:06.216Z,2.11
2022-11-14T02:35:38.159Z,2.11
2022-11-14T02:36:10.258Z,2.11
2022-11-14T02:36:42.602Z,2.11
2022-11-14T02:37:14.202Z,2.11
2022-11-14T02:37:38.067Z,2.11
2022-11-14T02:38:00.506Z,2.22
2022-11-14T02:38:34.036Z,2.22
2022-11-14T02:39:06.198Z,2.11
2022-11-14T02:39:38.148Z,2.11
2022-11-14T02:40:10.079Z,2.11
2022-11-14T02:40:41.997Z,2.11
2022-11-14T02:41:14.184Z,2.11
2022-11-14T02:41:36.746Z,2.11
2022-11-14T02:41:59.162Z,2.11
2022-11-14T02:42:34.100Z,2.11
2022-11-14T02:45:43.015Z,2.11
2022-11-14T02:46:24.796Z,2.11
2022-11-14T02:46:46.885Z,2.11
2022-11-14T02:47:22.063Z,2.11
2022-11-14T02:47:45.799Z,2.11
2022-11-14T02:48:08.409Z,2.11
2022-11-14T02:48:42.152Z,2.11
2022-11-14T02:49:11.096Z,2.11
2022-11-14T02:49:43.257Z,2.11
2022-11-14T02:50:18.521Z,2.11
2022-11-14T02:50:41.108Z,2.11
2022-11-14T02:51:03.909Z,2.11
2022-11-14T02:51:39.635Z,2.11
2022-11-14T02:52:10.614Z,2.11
2022-11-14T02:52:42.417Z,2.11
2022-11-14T02:53:14.541Z,2.11
2022-11-14T02:53:37.251Z,2.11
2022-11-14T02:53:59.875Z,2.11
2022-11-14T02:54:35.106Z,2.11
2022-11-14T02:55:06.881Z,2.11
2022-11-14T02:55:38.052Z,2.11
2022-11-14T02:56:12.402Z,2.11
2022-11-14T02:56:44.413Z,2.11
2022-11-14T02:57:14.230Z,2.11
2022-11-14T02:57:36.770Z,2.11
2022-11-14T02:57:59.474Z,2.27
2022-11-14T02:58:35.588Z,2.11
2022-11-14T02:59:06.303Z,2.11
2022-11-14T02:59:39.250Z,2.22
2022-11-14T03:00:15.159Z,2.22
2022-11-14T03:01:05.959Z,2.38
2022-11-14T03:01:30.282Z,2.22
2022-11-14T03:02:02.078Z,2.22
2022-11-14T03:02:34.102Z,2.27
2022-11-14T03:03:06.069Z,2.27
2022-11-14T03:03:38.053Z,2.27
2022-11-14T03:04:10.068Z,2.38
2022-11-14T03:04:42.175Z,2.38
2022-11-14T03:05:14.037Z,2.38
2022-11-14T03:05:38.504Z,2.38
2022-11-14T03:06:00.703Z,2.38
2022-11-14T03:06:34.267Z,2.38
2022-11-14T03:07:06.140Z,2.38
2022-11-14T03:07:38.102Z,2.38
2022-11-14T03:08:04.477Z,2.38
2022-11-14T03:08:43.752Z,2.50
2022-11-14T03:09:14.459Z,2.50
2022-11-14T03:09:37.006Z,2.50
2022-11-14T03:09:59.658Z,2.50
2022-11-14T03:10:34.434Z,2.50
2022-11-14T03:11:06.610Z,2.50
2022-11-14T03:11:38.343Z,2.50
2022-11-14T03:12:10.433Z,2.50
2022-11-14T03:12:42.157Z,2.50
2022-11-14T03:13:14.271Z,2.50
2022-11-14T03:13:36.767Z,2.50
2022-11-14T03:13:59.229Z,2.50
2022-11-14T03:14:35.397Z,2.50
2022-11-14T03:15:06.278Z,2.50
2022-11-14T03:15:38.384Z,2.50
2022-11-14T03:16:10.315Z,2.50
2022-11-14T03:16:45.297Z,2.50
2022-11-14T03:17:08.000Z,2.50
2022-11-14T03:17:42.768Z,2.50
2022-11-14T03:18:18.129Z,2.50
2022-11-14T03:18:40.710Z,2.50
2022-11-14T03:19:03.005Z,2.50
2022-11-14T03:19:38.283Z,2.50
2022-11-14T03:20:10.092Z,2.50
2022-11-14T03:20:42.043Z,2.61
2022-11-14T03:21:14.022Z,2.38
2022-11-14T03:21:37.432Z,2.38
2022-11-14T03:21:59.774Z,2.38
2022-11-14T03:22:34.668Z,2.61
2022-11-14T03:23:05.982Z,2.38
2022-11-14T03:23:37.990Z,2.27
2022-11-14T03:24:10.305Z,2.27
2022-11-14T03:24:42.186Z,2.50
2022-11-14T03:25:14.000Z,2.50
2022-11-14T03:25:36.762Z,2.50
2022-11-14T03:25:59.162Z,2.50
2022-11-14T03:26:34.095Z,2.50
2022-11-14T03:27:06.158Z,2.50
2022-11-14T03:27:38.073Z,2.50
2022-11-14T03:28:10.002Z,2.61
2022-11-14T03:28:45.518Z,2.61
2022-11-14T03:29:14.155Z,2.61
2022-11-14T03:29:40.780Z,2.61
2022-11-14T03:30:18.100Z,2.61
2022-11-14T03:30:42.820Z,2.61
2022-11-14T03:31:06.626Z,2.61
2022-11-14T03:31:37.974Z,2.61
2022-11-14T03:32:07.453Z,2.61
2022-11-14T03:32:42.411Z,2.61
2022-11-14T03:33:14.360Z,2.61
2022-11-14T03:33:37.226Z,2.61
2022-11-14T03:33:59.694Z,2.61
2022-11-14T03:34:34.164Z,2.61
2022-11-14T03:35:06.094Z,2.61
2022-11-14T03:35:38.128Z,2.61
2022-11-14T03:36:10.042Z,2.61
2022-11-14T03:36:44.730Z,2.61
2022-11-14T03:37:14.175Z,2.61
2022-11-14T03:37:37.264Z,2.61
2022-11-14T03:37:59.136Z,2.61
2022-11-14T03:38:34.398Z,2.61
2022-11-14T03:39:06.984Z,2.61
2022-11-14T03:39:38.252Z,2.61
2022-11-14T03:40:10.394Z,2.61
2022-11-14T03:40:42.088Z,2.50
2022-11-14T03:41:15.212Z,2.50
2022-11-14T03:41:37.892Z,2.50
2022-11-14T03:42:01.051Z,2.50
2022-11-14T03:42:34.386Z,2.50
2022-11-14T03:43:06.217Z,2.50
2022-11-14T03:43:39.290Z,2.50
2022-11-14T03:44:10.560Z,2.38
2022-11-14T03:44:42.596Z,2.38
2022-11-14T03:45:14.153Z,2.38
2022-11-14T03:45:36.817Z,2.38
2022-11-14T03:46:00.117Z,2.38
2022-11-14T03:46:34.154Z,2.38
2022-11-14T03:47:07.123Z,2.38
2022-11-14T03:47:38.205Z,2.50
2022-11-14T03:48:12.264Z,2.50
2022-11-14T03:48:42.190Z,2.50
2022-11-14T03:49:14.655Z,2.50
2022-11-14T03:49:36.968Z,2.50
2022-11-14T03:50:04.316Z,2.50
2022-11-14T03:50:35.206Z,2.50
2022-11-14T03:51:06.613Z,2.38
2022-11-14T03:51:38.230Z,2.38
2022-11-14T03:52:10.138Z,2.38
2022-11-14T03:52:46.719Z,2.38
2022-11-14T03:53:14.512Z,2.38
2022-11-14T03:53:37.172Z,2.38
2022-11-14T03:54:00.187Z,2.38
2022-11-14T03:54:34.308Z,2.38
2022-11-14T03:55:06.089Z,2.38
2022-11-14T03:55:38.327Z,2.38
2022-11-14T03:56:10.427Z,2.38
2022-11-14T03:56:42.411Z,2.38
2022-11-14T03:57:14.389Z,2.38
2022-11-14T03:57:37.087Z,2.38
2022-11-14T03:58:00.196Z,2.38
2022-11-14T03:58:34.188Z,2.38
2022-11-14T03:59:06.283Z,2.38
2022-11-14T03:59:38.413Z,2.38
2022-11-14T04:00:10.460Z,2.38
2022-11-14T04:00:42.558Z,2.38
2022-11-14T04:01:14.718Z,2.38
2022-11-14T04:01:37.220Z,2.38
2022-11-14T04:02:00.052Z,2.27
2022-11-14T04:02:34.161Z,2.27
2022-11-14T04:03:06.150Z,2.27
2022-11-14T04:03:37.961Z,2.27
2022-11-14T04:04:14.189Z,2.38
2022-11-14T04:04:36.790Z,2.38
2022-11-14T04:05:11.157Z,2.38
2022-11-14T04:05:44.249Z,2.38
2022-11-14T04:06:18.476Z,2.38
2022-11-14T04:06:40.928Z,2.38
2022-11-14T04:07:03.417Z,2.38
2022-11-14T04:07:38.128Z,2.27
2022-11-14T04:08:03.995Z,2.27
2022-11-14T04:08:42.808Z,2.27
2022-11-14T04:09:14.159Z,2.50
2022-11-14T04:09:36.882Z,2.27
2022-11-14T04:09:59.527Z,2.50
2022-11-14T04:10:35.173Z,2.50
2022-11-14T04:11:07.779Z,2.50
2022-11-14T04:11:38.373Z,2.50
2022-11-14T04:12:15.545Z,2.50
2022-11-14T04:12:42.184Z,2.50
2022-11-14T04:13:14.418Z,2.50
2022-11-14T04:13:37.353Z,2.50
2022-11-14T04:13:59.936Z,2.50
2022-11-14T04:14:35.310Z,2.50
2022-11-14T04:15:06.821Z,2.50
2022-11-14T04:15:38.133Z,2.50
2022-11-14T04:16:10.830Z,2.38
2022-11-14T04:16:41.961Z,2.38
2022-11-14T04:17:11.236Z,2.38
2022-11-14T04:17:43.250Z,2.38
2022-11-14T04:18:18.151Z,2.38
2022-11-14T04:18:40.781Z,2.38
2022-11-14T04:19:03.081Z,2.38
2022-11-14T04:19:38.524Z,2.38
2022-11-14T04:20:10.096Z,2.50
2022-11-14T04:20:42.782Z,2.50
2022-11-14T04:21:14.427Z,2.50
2022-11-14T04:21:36.943Z,2.50
2022-11-14T04:21:59.301Z,2.50
2022-11-14T04:22:34.760Z,2.50
2022-11-14T04:23:06.226Z,2.50
2022-11-14T04:23:38.227Z,2.50
2022-11-14T04:24:11.289Z,2.50
2022-11-14T04:24:43.029Z,2.50
2022-11-14T04:25:15.341Z,2.50
2022-11-14T04:25:38.067Z,2.50
2022-11-14T04:26:00.408Z,2.50
2022-11-14T04:26:34.305Z,2.50
2022-11-14T04:27:05.969Z,2.50
2022-11-14T04:27:38.258Z,2.50
2022-11-14T04:28:10.395Z,2.50
2022-11-14T04:28:42.709Z,2.50
2022-11-14T04:29:14.212Z,2.50
2022-11-14T04:29:36.952Z,2.38
2022-11-14T04:29:59.711Z,2.38
2022-11-14T04:30:34.979Z,2.38
2022-11-14T04:31:06.783Z,2.38
2022-11-14T04:31:38.074Z,2.50
2022-11-14T04:32:10.590Z,2.50
2022-11-14T04:32:42.365Z,2.50
2022-11-14T04:33:15.485Z,2.38
2022-11-14T04:33:37.956Z,2.38
2022-11-14T04:34:00.106Z,2.38
2022-11-14T04:34:34.268Z,2.38
2022-11-14T04:35:06.623Z,2.38
2022-11-14T04:35:38.094Z,2.38
2022-11-14T04:36:09.986Z,2.38
2022-11-14T04:36:42.640Z,2.38
2022-11-14T04:37:14.386Z,2.38
2022-11-14T04:37:37.086Z,2.38
2022-11-14T04:37:59.670Z,2.38
2022-11-14T04:38:34.473Z,2.38
2022-11-14T04:39:07.293Z,2.38
2022-11-14T04:39:38.593Z,2.38
2022-11-14T04:40:10.289Z,2.38
2022-11-14T04:40:42.086Z,2.38
2022-11-14T04:41:11.590Z,2.38
2022-11-14T04:41:42.748Z,2.38
2022-11-14T04:42:19.294Z,2.27
2022-11-14T04:42:41.680Z,2.27
2022-11-14T04:43:04.086Z,2.27
2022-11-14T04:43:39.732Z,2.27
2022-11-14T04:44:10.180Z,2.27
2022-11-14T04:44:42.320Z,2.27
2022-11-14T04:45:15.778Z,2.27
2022-11-14T04:45:36.970Z,2.27
2022-11-14T04:46:00.246Z,2.27
2022-11-14T04:46:34.547Z,2.27
2022-11-14T04:47:07.240Z,2.27
2022-11-14T04:47:38.045Z,2.27
2022-11-14T04:48:11.338Z,2.27
2022-11-14T04:48:42.332Z,2.27
2022-11-14T04:49:15.867Z,2.27
2022-11-14T04:49:38.583Z,2.27
2022-11-14T04:50:00.989Z,2.27
2022-11-14T04:50:34.933Z,2.27
2022-11-14T04:51:06.252Z,2.22
2022-11-14T04:51:39.335Z,2.22
2022-11-14T04:52:11.273Z,2.22
2022-11-14T04:52:43.055Z,2.22
2022-11-14T04:53:14.524Z,2.22
2022-11-14T04:53:36.787Z,2.22
2022-11-14T04:53:59.757Z,2.22
2022-11-14T04:54:35.742Z,2.27
2022-11-14T04:55:06.816Z,2.27
2022-11-14T04:55:38.151Z,2.27
2022-11-14T04:56:11.061Z,2.22
2022-11-14T04:56:42.224Z,2.22
2022-11-14T04:57:14.221Z,2.22
2022-11-14T04:57:36.908Z,2.22
2022-11-14T04:57:59.167Z,2.22
2022-11-14T04:58:34.908Z,2.22
2022-11-14T04:59:06.113Z,2.22
2022-11-14T04:59:38.312Z,2.22
2022-11-14T05:00:10.649Z,2.22
2022-11-14T05:00:42.424Z,2.22
2022-11-14T05:01:15.024Z,2.22
2022-11-14T05:01:37.484Z,2.22
2022-11-14T05:02:00.846Z,2.22
2022-11-14T05:02:34.190Z,2.22
2022-11-14T05:03:06.949Z,2.22
2022-11-14T05:03:38.144Z,2.22
2022-11-14T05:04:12.519Z,2.22
2022-11-14T05:04:42.316Z,2.22
2022-11-14T05:05:14.482Z,2.22
2022-11-14T05:05:41.775Z,2.22
2022-11-14T05:06:00.594Z,2.22
2022-11-14T05:06:34.137Z,2.22
2022-11-14T05:07:06.206Z,2.22
2022-11-14T05:07:38.145Z,2.22
2022-11-14T05:08:10.287Z,2.22
2022-11-14T05:08:42.998Z,2.22
2022-11-14T05:09:14.510Z,2.22
2022-11-14T05:09:37.004Z,2.22
2022-11-14T05:09:59.767Z,2.22
2022-11-14T05:10:34.906Z,2.22
2022-11-14T05:11:06.618Z,2.22
2022-11-14T05:11:38.681Z,2.22
2022-11-14T05:12:10.792Z,2.22
2022-11-14T05:12:42.177Z,2.22
2022-11-14T05:13:15.356Z,2.22
2022-11-14T05:13:37.754Z,2.22
2022-11-14T05:14:00.127Z,2.22
2022-11-14T05:14:34.916Z,2.22
2022-11-14T05:15:06.408Z,2.22
2022-11-14T05:15:38.267Z,2.22
2022-11-14T05:16:10.079Z,2.22
2022-11-14T05:16:42.073Z,2.22
2022-11-14T05:17:14.215Z,2.22
2022-11-14T05:17:37.025Z,2.22
2022-11-14T05:17:59.528Z,2.22
2022-11-14T05:18:34.960Z,2.22
2022-11-14T05:19:07.606Z,2.22
2022-11-14T05:19:38.111Z,2.22
2022-11-14T05:20:10.146Z,2.22
2022-11-14T05:20:42.260Z,2.22
2022-11-14T05:21:14.118Z,2.22
2022-11-14T05:21:37.105Z,2.22
2022-11-14T05:21:59.342Z,2.22
2022-11-14T05:22:34.636Z,2.22
2022-11-14T05:23:06.147Z,2.22
2022-11-14T05:23:38.343Z,2.22
2022-11-14T05:24:11.579Z,2.22
2022-11-14T05:24:42.991Z,2.22
2022-11-14T05:25:14.399Z,2.22
2022-11-14T05:25:37.233Z,2.22
2022-11-14T05:25:59.712Z,2.22
2022-11-14T05:26:34.155Z,2.22
2022-11-14T05:27:06.231Z,2.22
2022-11-14T05:27:38.414Z,2.22
2022-11-14T05:28:10.192Z,2.22
2022-11-14T05:28:43.622Z,2.22
2022-11-14T05:29:16.697Z,2.22
2022-11-14T05:29:39.426Z,2.22
2022-11-14T05:30:02.344Z,2.22
2022-11-14T05:30:34.587Z,2.27
2022-11-14T05:31:06.074Z,2.22
2022-11-14T05:31:38.396Z,2.22
2022-11-14T05:32:15.987Z,2.22
2022-11-14T05:32:42.419Z,2.22
2022-11-14T05:33:14.213Z,2.22
2022-11-14T05:33:36.959Z,2.22
2022-11-14T05:33:59.294Z,2.22
2022-11-14T05:34:34.564Z,2.22
2022-11-14T05:35:07.323Z,2.22
2022-11-14T05:35:38.015Z,2.22
2022-11-14T05:36:10.224Z,2.22
2022-11-14T05:36:42.542Z,2.22
2022-11-14T05:37:14.268Z,2.11
2022-11-14T05:37:37.441Z,2.11
2022-11-14T05:38:00.187Z,2.11
2022-11-14T05:38:34.310Z,2.11
2022-11-14T05:39:08.013Z,2.11
2022-11-14T05:39:38.574Z,2.11
2022-11-14T05:40:10.450Z,2.11
2022-11-14T05:40:42.153Z,2.11
2022-11-14T05:41:13.992Z,2.22
2022-11-14T05:41:36.682Z,2.22
2022-11-14T05:41:59.486Z,2.22
2022-11-14T05:42:34.299Z,2.22
2022-11-14T05:43:06.932Z,2.22
2022-11-14T05:43:38.921Z,2.22
2022-11-14T05:44:12.344Z,2.22
2022-11-14T05:44:42.073Z,2.22
2022-11-14T05:45:15.384Z,2.22
2022-11-14T05:45:37.928Z,2.22
2022-11-14T05:46:00.361Z,2.22
2022-11-14T05:46:38.521Z,2.22
2022-11-14T05:47:06.174Z,2.11
2022-11-14T05:47:38.453Z,2.11
2022-11-14T05:48:11.117Z,2.11
2022-11-14T05:48:42.753Z,2.11
2022-11-14T05:49:17.891Z,2.11
2022-11-14T05:49:37.246Z,2.11
2022-11-14T05:50:00.648Z,2.11
2022-11-14T05:50:34.124Z,2.22
2022-11-14T05:51:06.597Z,2.22
2022-11-14T05:51:38.222Z,2.11
2022-11-14T05:52:14.336Z,2.11
2022-11-14T05:52:36.875Z,2.11
2022-11-14T05:53:11.613Z,2.11
2022-11-14T05:53:42.845Z,2.11
2022-11-14T05:54:18.234Z,2.11
2022-11-14T05:54:41.319Z,2.11
2022-11-14T05:55:03.674Z,2.11
2022-11-14T05:55:38.110Z,2.11
2022-11-14T05:56:10.048Z,2.00
2022-11-14T05:56:41.971Z,2.00
2022-11-14T05:57:08.317Z,2.00
2022-11-14T05:57:43.017Z,2.00
2022-11-14T05:58:18.237Z,2.00
2022-11-14T05:58:40.819Z,2.00
2022-11-14T05:59:03.473Z,2.00
2022-11-14T05:59:38.296Z,2.00
2022-11-14T06:00:10.404Z,2.00
2022-11-14T06:00:50.740Z,1.88
2022-11-14T06:01:14.051Z,1.88
2022-11-14T06:01:36.752Z,1.88
2022-11-14T06:01:59.400Z,1.88
2022-11-14T06:02:34.438Z,1.88
2022-11-14T06:03:06.174Z,1.88
2022-11-14T06:03:38.756Z,1.88
2022-11-14T06:04:10.310Z,1.88
2022-11-14T06:04:42.199Z,1.88
2022-11-14T06:05:14.210Z,1.88
2022-11-14T06:05:36.882Z,1.88
2022-11-14T06:05:59.298Z,1.88
2022-11-14T06:06:35.072Z,1.88
2022-11-14T06:07:16.296Z,1.88
2022-11-14T06:07:35.025Z,1.88
2022-11-14T06:08:10.317Z,1.88
2022-11-14T06:08:41.973Z,1.88
2022-11-14T06:09:14.056Z,1.77
2022-11-14T06:09:36.804Z,1.77
2022-11-14T06:09:59.424Z,1.77
2022-11-14T06:10:34.013Z,1.77
2022-11-14T06:11:06.256Z,1.72
2022-11-14T06:11:38.049Z,1.72
2022-11-14T06:12:09.952Z,1.72
2022-11-14T06:12:42.091Z,1.72
2022-11-14T06:13:14.219Z,1.72
2022-11-14T06:13:37.216Z,1.72
2022-11-14T06:13:59.757Z,1.77
2022-11-14T06:14:34.241Z,1.77
2022-11-14T06:15:06.367Z,1.77
2022-11-14T06:15:38.290Z,1.88
2022-11-14T06:16:10.004Z,2.00
2022-11-14T06:16:42.148Z,1.88
2022-11-14T06:17:14.095Z,1.88
2022-11-14T06:17:36.755Z,1.88
2022-11-14T06:17:59.333Z,1.88
2022-11-14T06:18:34.127Z,2.00
2022-11-14T06:19:06.235Z,2.00
2022-11-14T06:19:38.145Z,2.00
2022-11-14T06:20:10.147Z,2.00
2022-11-14T06:20:42.143Z,2.11
2022-11-14T06:21:11.287Z,2.11
2022-11-14T06:21:42.908Z,2.11
2022-11-14T06:22:18.114Z,2.11
2022-11-14T06:22:43.130Z,2.00
2022-11-14T06:23:05.552Z,2.00
2022-11-14T06:23:38.029Z,2.00
2022-11-14T06:24:10.128Z,2.00
2022-11-14T06:24:42.245Z,2.00
2022-11-14T06:25:14.173Z,2.00
2022-11-14T06:25:36.927Z,2.00
2022-11-14T06:25:59.649Z,2.00
2022-11-14T06:26:34.046Z,1.88
2022-11-14T06:27:06.112Z,2.00
2022-11-14T06:27:38.159Z,2.00
2022-11-14T06:28:10.169Z,2.00
2022-11-14T06:28:42.546Z,2.00
2022-11-14T06:29:14.096Z,1.88
2022-11-14T06:29:36.942Z,1.88
2022-11-14T06:29:59.295Z,1.88
2022-11-14T06:30:35.683Z,1.88
2022-11-14T06:31:06.099Z,1.88
2022-11-14T06:31:38.254Z,1.88
2022-11-14T06:32:10.073Z,1.77
2022-11-14T06:32:42.460Z,1.77
2022-11-14T06:33:14.124Z,1.77
2022-11-14T06:33:43.183Z,1.77
2022-11-14T06:34:03.548Z,1.77
2022-11-14T06:34:34.467Z,1.77
2022-11-14T06:35:06.114Z,1.77
2022-11-14T06:35:38.576Z,1.77
2022-11-14T06:36:10.190Z,1.77
2022-11-14T06:36:47.519Z,1.77
2022-11-14T06:37:11.404Z,1.77
2022-11-14T06:37:42.783Z,1.88
2022-11-14T06:38:18.061Z,1.88
2022-11-14T06:38:41.269Z,1.88
2022-11-14T06:39:03.628Z,1.88
2022-11-14T06:39:38.274Z,1.88
2022-11-14T06:40:10.225Z,1.88
2022-11-14T06:40:42.376Z,1.88
2022-11-14T06:41:14.190Z,2.00
2022-11-14T06:41:36.826Z,2.00
2022-11-14T06:41:59.326Z,2.00